Time;durP1;ratioP1;P1;durP2;ratioP2;P2;SDS_P1;SDS_P2;PMS_P1;PMS_P2;Temp;Humidity;BMP_temperature;BMP_pressure;BME280_temperature;BME280_humidity;BME280_pressure;Samples;Min_cycle;Max_cycle;Signal;HPM_P1;HPM_P2
2021/09/09 00:00:14;;;;;;;2.35;1.48;;;22.20;68.40;;;;;;4990755;28;20034;-71
2021/09/09 00:02:40;;;;;;;2.35;1.48;;;22.20;69.10;;;;;;4980913;28;20026;-71
2021/09/09 00:05:07;;;;;;;2.25;1.40;;;22.30;68.80;;;;;;4987314;28;20040;-72
2021/09/09 00:07:33;;;;;;;2.47;1.40;;;22.30;68.70;;;;;;4994894;28;20033;-72
2021/09/09 00:09:59;;;;;;;2.13;1.20;;;22.30;69.20;;;;;;4993667;28;20026;-72
2021/09/09 00:12:25;;;;;;;3.17;1.30;;;22.20;68.60;;;;;;4992656;28;20022;-72
2021/09/09 00:14:51;;;;;;;3.22;1.30;;;22.20;69.00;;;;;;4988801;28;20026;-71
2021/09/09 00:17:16;;;;;;;2.88;1.30;;;22.20;68.90;;;;;;4993483;28;20050;-71
2021/09/09 00:19:42;;;;;;;2.70;1.60;;;22.10;68.90;;;;;;4977633;28;20487;-72
2021/09/09 00:22:08;;;;;;;2.55;1.48;;;22.20;69.10;;;;;;4991834;28;20395;-72
2021/09/09 00:24:34;;;;;;;2.00;1.33;;;22.20;69.00;;;;;;4993083;28;20038;-72
2021/09/09 00:26:59;;;;;;;2.65;1.33;;;22.30;68.90;;;;;;4992292;28;20494;-71
2021/09/09 00:29:25;;;;;;;2.10;1.40;;;22.40;68.90;;;;;;4993179;28;20034;-71
2021/09/09 00:31:51;;;;;;;2.83;1.38;;;22.30;68.70;;;;;;4993910;28;20068;-71
2021/09/09 00:34:16;;;;;;;2.33;1.40;;;22.40;68.90;;;;;;4991605;28;20085;-71
2021/09/09 00:36:42;;;;;;;3.03;1.38;;;22.20;68.90;;;;;;4989787;28;20019;-72
2021/09/09 00:39:08;;;;;;;4.93;1.42;;;22.10;69.20;;;;;;4991662;28;20057;-71
2021/09/09 00:41:33;;;;;;;2.38;1.10;;;22.20;69.70;;;;;;4986617;28;20049;-71
2021/09/09 00:44:00;;;;;;;1.60;1.00;;;22.30;69.40;;;;;;4992986;28;20038;-71
2021/09/09 00:46:26;;;;;;;2.28;1.13;;;22.20;68.80;;;;;;4995064;28;20565;-71
2021/09/09 00:48:52;;;;;;;2.83;1.42;;;22.20;69.20;;;;;;4992770;28;20034;-71
2021/09/09 00:51:19;;;;;;;2.30;1.10;;;22.20;69.30;;;;;;4969618;28;20102;-71
2021/09/09 00:53:44;;;;;;;2.50;1.08;;;22.10;69.60;;;;;;4980138;28;20089;-71
2021/09/09 00:56:12;;;;;;;1.65;1.20;;;22.10;69.30;;;;;;4992304;28;20586;-72
2021/09/09 00:58:41;;;;;;;2.22;1.13;;;22.00;69.90;;;;;;4994758;28;20053;-71
2021/09/09 01:01:07;;;;;;;3.53;1.20;;;22.00;69.70;;;;;;4992090;28;20089;-70
2021/09/09 01:03:32;;;;;;;2.53;1.10;;;22.00;70.10;;;;;;4988346;28;20026;-71
2021/09/09 01:05:58;;;;;;;2.80;1.10;;;22.00;69.70;;;;;;4992447;28;20026;-71
2021/09/09 01:08:24;;;;;;;2.53;1.25;;;22.00;69.70;;;;;;4992810;28;20098;-73
2021/09/09 01:10:50;;;;;;;1.60;1.30;;;22.10;70.10;;;;;;4993568;28;20034;-71
2021/09/09 01:13:15;;;;;;;2.08;1.20;;;22.20;69.80;;;;;;4993323;28;20030;-72
2021/09/09 01:15:44;;;;;;;3.42;1.50;;;22.10;69.40;;;;;;4976214;28;20026;-72
2021/09/09 01:18:14;;;;;;;2.63;1.00;;;22.10;69.70;;;;;;4991015;28;20443;-72
2021/09/09 01:20:41;;;;;;;2.28;1.30;;;22.00;70.20;;;;;;4992412;28;20037;-72
2021/09/09 01:23:08;;;;;;;1.85;1.40;;;22.00;70.60;;;;;;4992440;28;20053;-72
2021/09/09 01:25:34;;;;;;;2.67;1.60;;;22.00;70.20;;;;;;4994078;28;20100;-72
2021/09/09 01:28:00;;;;;;;2.85;1.27;;;22.00;70.10;;;;;;4990729;28;20081;-72
2021/09/09 01:30:26;;;;;;;2.65;1.10;;;22.10;70.50;;;;;;4992377;28;20030;-73
2021/09/09 01:32:52;;;;;;;2.13;1.23;;;22.10;70.60;;;;;;4992168;28;20526;-72
2021/09/09 01:35:17;;;;;;;2.97;1.70;;;22.10;70.30;;;;;;4992695;28;20030;-72
2021/09/09 01:37:44;;;;;;;2.60;1.20;;;22.10;70.90;;;;;;4993557;28;20054;-73
2021/09/09 01:40:10;;;;;;;3.90;1.23;;;22.20;70.10;;;;;;4992224;28;20121;-72
2021/09/09 01:42:36;;;;;;;2.03;1.00;;;22.10;70.10;;;;;;4991830;28;20026;-72
2021/09/09 01:45:01;;;;;;;2.95;1.10;;;22.00;70.70;;;;;;4990327;28;20065;-73
2021/09/09 01:47:27;;;;;;;3.15;1.23;;;21.90;70.40;;;;;;4992070;28;20391;-72
2021/09/09 01:49:53;;;;;;;2.08;1.30;;;21.90;70.90;;;;;;4992545;28;20033;-72
2021/09/09 01:52:18;;;;;;;3.47;1.25;;;21.90;71.40;;;;;;4969390;28;20429;-72
2021/09/09 01:54:44;;;;;;;3.35;1.50;;;22.00;71.00;;;;;;4991881;28;20034;-72
2021/09/09 01:57:10;;;;;;;2.28;1.15;;;21.90;71.80;;;;;;4991898;28;20516;-73
2021/09/09 01:59:35;;;;;;;2.53;1.23;;;21.90;71.30;;;;;;4991923;28;20036;-72
2021/09/09 02:02:01;;;;;;;3.72;1.30;;;22.00;72.00;;;;;;4991783;28;20022;-72
2021/09/09 02:04:29;;;;;;;2.83;1.38;;;21.90;71.50;;;;;;4993650;28;20045;-72
2021/09/09 02:06:55;;;;;;;4.43;1.80;;;21.90;71.40;;;;;;4991470;28;20033;-72
2021/09/09 02:09:21;;;;;;;3.75;1.70;;;22.00;71.70;;;;;;4971284;28;20030;-73
2021/09/09 02:11:46;;;;;;;1.95;1.40;;;22.00;72.00;;;;;;4990341;28;20030;-73
2021/09/09 02:14:12;;;;;;;2.47;1.67;;;21.90;71.60;;;;;;4991881;28;20041;-72
2021/09/09 02:16:38;;;;;;;4.43;1.88;;;21.80;72.00;;;;;;4993443;28;20018;-73
2021/09/09 02:19:03;;;;;;;3.55;1.80;;;21.90;72.20;;;;;;4991621;28;20030;-73
2021/09/09 02:21:29;;;;;;;1.95;1.40;;;21.80;71.70;;;;;;4990809;28;20019;-73
2021/09/09 02:23:54;;;;;;;5.05;1.77;;;21.80;72.00;;;;;;4992022;28;20023;-72
2021/09/09 02:26:20;;;;;;;5.22;1.70;;;21.80;72.30;;;;;;4992804;28;20026;-73
2021/09/09 02:28:46;;;;;;;3.38;1.50;;;21.80;72.00;;;;;;4992801;28;20038;-72
2021/09/09 02:31:12;;;;;;;3.78;1.83;;;21.80;72.60;;;;;;4992852;28;20050;-72
2021/09/09 02:33:38;;;;;;;2.80;1.70;;;21.80;72.30;;;;;;4992448;28;20439;-72
2021/09/09 02:36:04;;;;;;;4.05;1.70;;;21.70;72.70;;;;;;4974677;28;20037;-72
2021/09/09 02:38:29;;;;;;;2.13;1.40;;;21.70;72.50;;;;;;4992543;28;20058;-72
2021/09/09 02:40:55;;;;;;;3.92;1.60;;;21.60;72.40;;;;;;4992106;28;20050;-72
2021/09/09 02:43:20;;;;;;;3.42;1.80;;;21.70;72.70;;;;;;4990816;28;20057;-72
2021/09/09 02:45:46;;;;;;;3.47;1.60;;;21.70;72.90;;;;;;4987380;28;20038;-73
2021/09/09 02:48:12;;;;;;;3.50;1.80;;;21.80;72.80;;;;;;4990347;28;20034;-72
2021/09/09 02:50:37;;;;;;;2.95;1.70;;;21.70;73.00;;;;;;4987297;28;20043;-72
2021/09/09 02:53:03;;;;;;;2.60;1.35;;;21.70;73.30;;;;;;4990199;28;20062;-72
2021/09/09 02:55:29;;;;;;;2.55;1.75;;;21.70;73.20;;;;;;4991726;28;20034;-73
2021/09/09 02:57:54;;;;;;;2.72;1.63;;;21.80;72.90;;;;;;4990879;28;20121;-72
2021/09/09 03:00:20;;;;;;;3.30;1.65;;;21.80;73.00;;;;;;4990938;28;20050;-73
2021/09/09 03:02:46;;;;;;;5.47;1.67;;;21.70;72.90;;;;;;4990498;28;20073;-72
2021/09/09 03:05:12;;;;;;;2.60;1.67;;;21.60;73.80;;;;;;4989045;28;20027;-72
2021/09/09 03:07:37;;;;;;;4.75;1.73;;;21.60;73.60;;;;;;4992743;28;20229;-72
2021/09/09 03:10:06;;;;;;;3.30;1.52;;;21.60;74.50;;;;;;4988943;28;20029;-72
2021/09/09 03:12:32;;;;;;;3.80;1.60;;;21.60;73.60;;;;;;4990694;28;20026;-72
2021/09/09 03:14:57;;;;;;;2.67;1.30;;;21.70;74.00;;;;;;4990639;28;20514;-72
2021/09/09 03:17:23;;;;;;;2.53;1.50;;;21.70;73.60;;;;;;4989467;28;20023;-72
2021/09/09 03:19:48;;;;;;;4.18;1.50;;;21.60;73.70;;;;;;4988017;28;20058;-72
2021/09/09 03:22:14;;;;;;;2.72;1.52;;;21.70;74.10;;;;;;4991364;28;20039;-73
2021/09/09 03:24:40;;;;;;;2.78;1.63;;;21.60;73.00;;;;;;4970021;28;20038;-72
2021/09/09 03:27:05;;;;;;;2.33;1.50;;;21.60;73.60;;;;;;4989186;28;20109;-73
2021/09/09 03:29:31;;;;;;;2.97;1.42;;;21.40;74.00;;;;;;4988182;28;20038;-72
2021/09/09 03:31:56;;;;;;;3.67;1.40;;;21.40;74.50;;;;;;4988858;28;20043;-73
2021/09/09 03:34:22;;;;;;;4.72;1.50;;;21.50;74.00;;;;;;4990117;28;20031;-73
2021/09/09 03:36:48;;;;;;;3.20;1.50;;;21.50;74.00;;;;;;4990497;28;20077;-73
2021/09/09 03:39:14;;;;;;;3.47;1.55;;;21.50;74.40;;;;;;4990466;28;20027;-73
2021/09/09 03:41:39;;;;;;;2.97;1.10;;;21.30;74.80;;;;;;4988742;28;20030;-72
2021/09/09 03:44:05;;;;;;;2.50;1.55;;;21.30;75.20;;;;;;4990129;28;20053;-72
2021/09/09 03:46:31;;;;;;;3.03;1.50;;;21.40;75.00;;;;;;4992535;28;20104;-72
2021/09/09 03:48:56;;;;;;;4.45;1.88;;;21.40;74.60;;;;;;4990137;28;20061;-72
2021/09/09 03:51:22;;;;;;;1.90;1.00;;;21.30;74.50;;;;;;4989773;28;20061;-72
2021/09/09 03:53:48;;;;;;;2.67;1.10;;;21.30;74.90;;;;;;4990351;28;20439;-73
2021/09/09 03:56:13;;;;;;;3.42;1.45;;;21.40;75.40;;;;;;4990248;28;20030;-72
2021/09/09 03:58:39;;;;;;;3.33;1.30;;;21.30;75.00;;;;;;4992444;28;20031;-72
2021/09/09 04:01:04;;;;;;;2.00;1.30;;;21.20;75.30;;;;;;4994083;28;20084;-72
2021/09/09 04:03:30;;;;;;;2.38;1.20;;;21.20;75.00;;;;;;4992524;28;20034;-71
2021/09/09 04:05:56;;;;;;;2.20;1.20;;;21.20;75.10;;;;;;4993084;28;20506;-72
2021/09/09 04:08:22;;;;;;;3.70;1.75;;;21.20;75.10;;;;;;4991937;28;20059;-72
2021/09/09 04:10:47;;;;;;;1.35;1.15;;;21.30;75.30;;;;;;4994512;28;20030;-71
2021/09/09 04:13:13;;;;;;;2.95;1.35;;;21.30;75.40;;;;;;4993947;28;20026;-71
2021/09/09 04:15:39;;;;;;;3.20;1.25;;;21.20;74.80;;;;;;4991439;28;20048;-71
2021/09/09 04:18:05;;;;;;;3.13;1.67;;;21.20;74.90;;;;;;4990991;28;20065;-71
2021/09/09 04:20:31;;;;;;;3.25;1.30;;;21.20;75.60;;;;;;4980829;28;20483;-72
2021/09/09 04:22:57;;;;;;;3.28;1.38;;;21.10;75.80;;;;;;4993777;28;20026;-71
2021/09/09 04:25:22;;;;;;;3.47;1.38;;;21.10;75.60;;;;;;4991936;28;20049;-72
2021/09/09 04:27:48;;;;;;;2.47;1.17;;;21.10;75.60;;;;;;4990390;28;20050;-71
2021/09/09 04:30:14;;;;;;;3.80;1.30;;;21.10;75.60;;;;;;4993112;28;20026;-71
2021/09/09 04:32:39;;;;;;;4.40;1.27;;;21.20;76.20;;;;;;4968131;28;20451;-71
2021/09/09 04:35:05;;;;;;;2.25;1.02;;;21.20;75.30;;;;;;4992957;28;20042;-71
2021/09/09 04:37:33;;;;;;;5.15;2.10;;;21.20;75.80;;;;;;4994769;28;20101;-72
2021/09/09 04:39:58;;;;;;;3.13;1.73;;;21.20;75.50;;;;;;4991477;28;20044;-71
2021/09/09 04:42:24;;;;;;;4.13;1.40;;;21.30;76.00;;;;;;4991207;28;20018;-72
2021/09/09 04:44:50;;;;;;;4.85;1.20;;;21.20;75.50;;;;;;4991461;28;20046;-72
2021/09/09 04:47:15;;;;;;;3.38;1.30;;;21.20;75.80;;;;;;4993488;28;20483;-72
2021/09/09 04:49:41;;;;;;;2.63;1.40;;;21.20;75.80;;;;;;4994740;28;20479;-71
2021/09/09 04:52:07;;;;;;;3.15;1.40;;;21.10;75.70;;;;;;4973479;28;20030;-71
2021/09/09 04:54:32;;;;;;;1.55;1.05;;;21.10;75.70;;;;;;4992668;28;20030;-71
2021/09/09 04:56:58;;;;;;;4.63;1.38;;;21.10;76.50;;;;;;4992218;28;20039;-71
2021/09/09 04:59:24;;;;;;;3.00;1.13;;;21.20;76.20;;;;;;4992532;28;20100;-72
2021/09/09 05:01:49;;;;;;;4.10;1.45;;;21.10;75.70;;;;;;4980659;28;20495;-72
2021/09/09 05:04:15;;;;;;;3.10;1.50;;;21.10;76.10;;;;;;4993368;28;20104;-71
2021/09/09 05:06:41;;;;;;;2.60;1.50;;;21.10;76.00;;;;;;4991022;28;20026;-71
2021/09/09 05:09:06;;;;;;;2.90;1.38;;;21.10;75.70;;;;;;4972069;28;20038;-72
2021/09/09 05:11:32;;;;;;;3.50;1.77;;;21.00;76.10;;;;;;4991644;28;20023;-72
2021/09/09 05:13:57;;;;;;;3.53;1.55;;;21.10;77.10;;;;;;4974584;28;20109;-71
2021/09/09 05:16:23;;;;;;;3.80;1.52;;;21.00;76.10;;;;;;4993337;28;20502;-72
2021/09/09 05:18:49;;;;;;;2.88;1.50;;;21.00;76.30;;;;;;4990842;28;20066;-71
2021/09/09 05:21:14;;;;;;;3.05;1.55;;;21.00;76.30;;;;;;4990229;28;20411;-71
2021/09/09 05:23:40;;;;;;;3.20;1.80;;;21.00;76.30;;;;;;4992132;28;20121;-72
2021/09/09 05:26:05;;;;;;;5.22;1.75;;;20.90;76.70;;;;;;4992220;28;20084;-71
2021/09/09 05:28:31;;;;;;;3.10;1.58;;;20.90;76.80;;;;;;4992796;28;20019;-71
2021/09/09 05:30:56;;;;;;;3.80;1.73;;;21.00;76.60;;;;;;4991165;28;20121;-72
2021/09/09 05:33:22;;;;;;;3.72;1.63;;;21.00;76.60;;;;;;4989942;28;20031;-72
2021/09/09 05:35:48;;;;;;;3.72;1.50;;;21.00;76.80;;;;;;4990797;28;20058;-72
2021/09/09 05:38:14;;;;;;;5.43;1.77;;;21.00;76.80;;;;;;4990043;28;20026;-73
2021/09/09 05:40:40;;;;;;;5.25;2.15;;;21.10;76.90;;;;;;4979007;28;20542;-73
2021/09/09 05:43:05;;;;;;;3.97;1.70;;;21.00;76.60;;;;;;4984053;28;20062;-73
2021/09/09 05:45:31;;;;;;;3.72;1.80;;;21.00;76.60;;;;;;4986021;28;20042;-73
2021/09/09 05:47:57;;;;;;;4.65;1.58;;;20.90;77.30;;;;;;4975271;28;20026;-73
2021/09/09 05:50:23;;;;;;;3.42;1.52;;;20.90;76.70;;;;;;4991409;28;20065;-73
2021/09/09 05:52:49;;;;;;;4.95;1.77;;;21.00;77.00;;;;;;4992708;28;20049;-72
2021/09/09 05:55:15;;;;;;;2.97;1.45;;;21.00;76.90;;;;;;4991095;28;20064;-72
2021/09/09 05:57:41;;;;;;;2.30;1.30;;;20.90;77.50;;;;;;4975566;28;20043;-72
2021/09/09 06:00:09;;;;;;;2.83;1.40;;;21.00;77.20;;;;;;4989906;28;20130;-72
2021/09/09 06:02:42;;;;;;;5.85;1.90;;;21.00;77.10;;;;;;4991194;28;20105;-72
2021/09/09 06:05:08;;;;;;;2.55;1.25;;;21.00;77.10;;;;;;4998319;28;20034;-73
2021/09/09 06:07:34;;;;;;;7.00;1.52;;;20.90;78.30;;;;;;4999555;28;20030;-73
2021/09/09 06:09:59;;;;;;;4.05;1.42;;;21.00;77.50;;;;;;4991269;28;20126;-72
2021/09/09 06:12:26;;;;;;;2.60;1.20;;;21.00;77.20;;;;;;4992500;28;20033;-73
2021/09/09 06:14:53;;;;;;;4.60;1.17;;;21.00;77.10;;;;;;4990743;28;20487;-73
2021/09/09 06:17:19;;;;;;;4.18;1.35;;;21.10;77.50;;;;;;4990806;28;20113;-73
2021/09/09 06:19:44;;;;;;;2.67;1.27;;;21.10;77.20;;;;;;4970878;28;20122;-72
2021/09/09 06:22:10;;;;;;;4.07;1.33;;;21.10;77.50;;;;;;4989950;28;20026;-71
2021/09/09 06:24:36;;;;;;;3.95;1.50;;;21.00;77.00;;;;;;4989295;28;20428;-70
2021/09/09 06:27:01;;;;;;;3.20;1.27;;;20.90;78.20;;;;;;4973547;28;20077;-71
2021/09/09 06:29:27;;;;;;;2.67;1.25;;;20.90;79.10;;;;;;4990450;28;20109;-70
2021/09/09 06:31:53;;;;;;;3.67;1.35;;;20.90;78.80;;;;;;4974078;28;20046;-73
2021/09/09 06:34:18;;;;;;;2.08;0.80;;;20.90;78.30;;;;;;4991724;28;20030;-72
2021/09/09 06:36:44;;;;;;;2.80;1.15;;;21.00;78.40;;;;;;4970840;28;20121;-72
2021/09/09 06:39:10;;;;;;;3.17;1.20;;;21.00;78.30;;;;;;4973602;28;20462;-72
2021/09/09 06:41:36;;;;;;;3.10;1.20;;;21.10;77.80;;;;;;4990848;28;20030;-72
2021/09/09 06:44:02;;;;;;;2.83;1.10;;;21.10;77.80;;;;;;4972867;28;20041;-72
2021/09/09 06:46:27;;;;;;;4.65;1.17;;;21.10;77.70;;;;;;4979978;28;20038;-72
2021/09/09 06:48:53;;;;;;;3.35;0.93;;;21.10;77.80;;;;;;4989562;28;20031;-72
2021/09/09 06:51:21;;;;;;;2.95;1.35;;;21.00;77.90;;;;;;4988839;28;20026;-73
2021/09/09 06:53:46;;;;;;;4.50;1.20;;;21.00;78.20;;;;;;4988881;28;20026;-73
2021/09/09 06:56:12;;;;;;;4.70;1.10;;;21.10;79.00;;;;;;4982259;28;20027;-72
2021/09/09 06:58:38;;;;;;;3.38;1.20;;;21.10;78.50;;;;;;4991756;28;20491;-72
2021/09/09 07:01:03;;;;;;;2.83;1.17;;;21.10;78.10;;;;;;4990206;28;20034;-73
2021/09/09 07:03:30;;;;;;;3.58;1.20;;;21.20;78.50;;;;;;4990057;28;20026;-73
2021/09/09 07:05:56;;;;;;;4.20;1.25;;;21.30;78.50;;;;;;4990403;28;20052;-73
2021/09/09 07:08:22;;;;;;;6.45;1.40;;;21.30;78.30;;;;;;4990350;28;20046;-73
2021/09/09 07:10:47;;;;;;;4.53;1.38;;;21.40;78.10;;;;;;4991911;28;20447;-73
2021/09/09 07:13:17;;;;;;;4.78;1.17;;;21.50;77.70;;;;;;4990716;28;20039;-73
2021/09/09 07:15:42;;;;;;;4.85;1.50;;;21.50;77.80;;;;;;4991151;28;20038;-73
2021/09/09 07:18:08;;;;;;;3.20;1.30;;;21.60;77.70;;;;;;4990280;28;20030;-73
2021/09/09 07:20:34;;;;;;;3.05;1.30;;;21.80;77.80;;;;;;4990284;28;20038;-73
2021/09/09 07:22:59;;;;;;;3.35;1.35;;;21.90;76.90;;;;;;4977707;28;20511;-73
2021/09/09 07:25:25;;;;;;;3.83;1.27;;;21.90;76.20;;;;;;4992018;28;20399;-72
2021/09/09 07:27:50;;;;;;;3.65;1.30;;;21.90;76.30;;;;;;4989413;28;20023;-73
2021/09/09 07:30:16;;;;;;;3.78;1.40;;;21.90;76.00;;;;;;4982646;28;20104;-73
2021/09/09 07:32:42;;;;;;;4.38;1.48;;;21.90;75.80;;;;;;4989105;28;20046;-73
2021/09/09 07:35:09;;;;;;;4.35;1.50;;;21.80;76.10;;;;;;4991701;28;20027;-73
2021/09/09 07:37:35;;;;;;;2.42;1.30;;;21.80;76.40;;;;;;4995333;28;20026;-73
2021/09/09 07:40:01;;;;;;;3.72;1.45;;;21.80;76.20;;;;;;4991638;28;20113;-72
2021/09/09 07:42:26;;;;;;;4.80;1.58;;;21.80;76.20;;;;;;4985288;28;20125;-72
2021/09/09 07:44:52;;;;;;;4.03;1.40;;;21.80;76.10;;;;;;4981489;28;20034;-72
2021/09/09 07:47:18;;;;;;;4.55;1.60;;;21.80;76.40;;;;;;4988039;28;20034;-72
2021/09/09 07:49:43;;;;;;;4.00;1.50;;;21.90;76.40;;;;;;4972312;28;20027;-72
2021/09/09 07:52:09;;;;;;;5.07;1.67;;;22.10;76.40;;;;;;4987348;28;20098;-73
2021/09/09 07:54:35;;;;;;;4.35;1.80;;;22.20;76.10;;;;;;4983898;28;20038;-73
2021/09/09 07:57:01;;;;;;;5.32;1.42;;;22.50;75.90;;;;;;4987882;28;20026;-72
2021/09/09 07:59:26;;;;;;;5.43;1.90;;;22.40;75.20;;;;;;4990515;28;20033;-72
2021/09/09 08:01:52;;;;;;;4.35;2.00;;;22.50;75.40;;;;;;4994968;28;20037;-71
2021/09/09 08:04:19;;;;;;;5.25;1.80;;;22.60;74.90;;;;;;4995303;28;20030;-71
2021/09/09 08:06:45;;;;;;;3.88;2.63;;;22.80;75.30;;;;;;4989851;28;20026;-73
2021/09/09 08:09:12;;;;;;;4.53;2.45;;;23.00;74.30;;;;;;4964801;28;20031;-71
2021/09/09 08:11:38;;;;;;;4.60;2.42;;;23.10;73.70;;;;;;4984649;28;20042;-73
2021/09/09 08:14:04;;;;;;;4.07;1.77;;;23.30;73.90;;;;;;4985315;28;20042;-72
2021/09/09 08:16:30;;;;;;;3.42;1.60;;;23.70;72.90;;;;;;4985991;28;20034;-73
2021/09/09 08:18:55;;;;;;;3.05;1.52;;;23.60;70.20;;;;;;4988954;28;20026;-73
2021/09/09 08:21:21;;;;;;;3.25;1.23;;;23.50;70.20;;;;;;4984391;28;20395;-72
2021/09/09 08:23:47;;;;;;;2.20;1.45;;;23.50;72.70;;;;;;4982921;28;20062;-72
2021/09/09 08:26:12;;;;;;;2.70;1.23;;;23.90;70.90;;;;;;4989251;28;20101;-72
2021/09/09 08:28:38;;;;;;;2.92;1.42;;;24.10;69.70;;;;;;4988400;28;20499;-73
2021/09/09 08:31:05;;;;;;;4.05;1.20;;;24.00;68.90;;;;;;4989110;28;20430;-71
2021/09/09 08:33:31;;;;;;;2.03;1.20;;;23.90;69.30;;;;;;4989087;28;20054;-71
2021/09/09 08:35:57;;;;;;;3.63;1.30;;;23.80;70.00;;;;;;4988042;28;20030;-72
2021/09/09 08:38:22;;;;;;;3.75;1.38;;;23.90;70.00;;;;;;4986225;28;20843;-72
2021/09/09 08:40:51;;;;;;;3.38;1.20;;;23.80;69.10;;;;;;4986041;28;20029;-72
2021/09/09 08:43:16;;;;;;;4.95;1.50;;;23.70;69.40;;;;;;4988457;28;20022;-71
2021/09/09 08:45:44;;;;;;;4.10;1.60;;;23.50;68.70;;;;;;4991617;28;20084;-72
2021/09/09 08:48:11;;;;;;;3.22;1.40;;;23.30;69.40;;;;;;4969765;28;20041;-72
2021/09/09 08:50:37;;;;;;;3.13;1.33;;;23.10;69.10;;;;;;4986634;28;20101;-71
2021/09/09 08:53:03;;;;;;;2.65;1.30;;;23.00;69.50;;;;;;4986509;28;20109;-72
2021/09/09 08:55:29;;;;;;;4.32;1.40;;;22.90;70.20;;;;;;4988438;28;20026;-72
2021/09/09 08:57:56;;;;;;;2.80;1.38;;;22.90;70.20;;;;;;4987073;28;20031;-71
2021/09/09 09:00:22;;;;;;;4.40;1.20;;;22.80;70.30;;;;;;4985955;28;20165;-72
2021/09/09 09:02:53;;;;;;;4.35;1.50;;;22.80;70.40;;;;;;4984684;28;20102;-73
2021/09/09 09:05:19;;;;;;;2.88;1.35;;;22.80;71.10;;;;;;4985292;28;20035;-73
2021/09/09 09:07:45;;;;;;;3.30;1.70;;;23.10;71.20;;;;;;4986028;28;20098;-73
2021/09/09 09:10:11;;;;;;;3.13;1.60;;;23.30;70.60;;;;;;4969041;28;20487;-73
2021/09/09 09:12:41;;;;;;;4.78;1.88;;;23.30;70.80;;;;;;4987605;28;20407;-73
2021/09/09 09:15:22;;;;;;;3.50;1.48;;;23.40;70.00;;;;;;4987846;28;20034;-73
2021/09/09 09:18:01;;;;;;;3.65;1.80;;;23.30;69.70;;;;;;4987538;28;20027;-73
2021/09/09 09:20:44;;;;;;;3.22;1.50;;;23.10;70.00;;;;;;4985678;28;20077;-75
2021/09/09 09:23:22;;;;;;;5.57;1.55;;;23.00;70.70;;;;;;4990290;28;20019;-73
2021/09/09 09:25:50;;;;;;;16.33;10.20;;;22.90;71.90;;;;;;4984909;28;20050;-73
2021/09/09 09:28:37;;;;;;;7.97;3.97;;;22.90;71.60;;;;;;4983377;28;20069;-73
2021/09/09 09:31:13;;;;;;;7.00;2.67;;;23.00;71.50;;;;;;4980443;28;20027;-73
2021/09/09 09:33:45;;;;;;;6.18;2.50;;;23.00;71.50;;;;;;4992889;28;20053;-73
2021/09/09 09:36:14;;;;;;;4.82;2.30;;;23.00;71.40;;;;;;4986595;28;20023;-73
2021/09/09 09:38:41;;;;;;;4.65;2.17;;;22.90;71.30;;;;;;4989437;28;20061;-73
2021/09/09 09:41:07;;;;;;;4.38;1.80;;;22.80;72.00;;;;;;4973802;28;20042;-73
2021/09/09 09:43:33;;;;;;;5.35;2.00;;;22.70;72.30;;;;;;4992763;28;20034;-73
2021/09/09 09:45:59;;;;;;;5.07;2.08;;;22.60;72.50;;;;;;4989462;28;20041;-73
2021/09/09 09:48:26;;;;;;;4.55;1.88;;;22.30;73.30;;;;;;4990046;28;20022;-73
2021/09/09 09:50:52;;;;;;;4.72;1.80;;;22.30;73.80;;;;;;4991961;28;20495;-73
2021/09/09 09:53:18;;;;;;;3.97;1.85;;;22.20;74.40;;;;;;4990886;28;20030;-73
2021/09/09 09:55:46;;;;;;;5.35;1.80;;;22.30;74.60;;;;;;4975168;28;20151;-73
2021/09/09 09:58:11;;;;;;;4.68;2.30;;;22.40;74.50;;;;;;4960715;28;20075;-72
2021/09/09 10:00:37;;;;;;;4.60;2.20;;;22.40;74.50;;;;;;4986375;28;20458;-72
2021/09/09 10:03:04;;;;;;;4.35;2.03;;;22.40;74.60;;;;;;4990150;28;20524;-73
2021/09/09 10:05:32;;;;;;;5.18;2.40;;;22.50;75.00;;;;;;4989487;28;20037;-73
2021/09/09 10:07:59;;;;;;;4.25;2.50;;;22.50;74.50;;;;;;4990734;28;20033;-73
2021/09/09 10:10:25;;;;;;;3.25;2.00;;;22.50;74.40;;;;;;4972031;28;20113;-73
2021/09/09 10:12:52;;;;;;;4.43;2.20;;;22.50;74.40;;;;;;4989301;28;20039;-73
2021/09/09 10:15:20;;;;;;;4.68;2.47;;;22.50;74.70;;;;;;4973473;28;20026;-73
2021/09/09 10:17:47;;;;;;;4.75;1.90;;;22.50;74.30;;;;;;4989209;28;20402;-73
2021/09/09 10:20:36;;;;;;;3.17;1.98;;;22.60;74.40;;;;;;4972357;28;20026;-73
2021/09/09 10:23:10;;;;;;;4.07;2.05;;;22.60;74.30;;;;;;4965631;28;20113;-73
2021/09/09 10:25:54;;;;;;;3.40;1.90;;;22.70;74.40;;;;;;4992354;28;20106;-73
2021/09/09 10:28:46;;;;;;;3.00;2.08;;;22.80;74.50;;;;;;4992066;28;20038;-73
2021/09/09 10:31:21;;;;;;;3.97;2.10;;;22.80;74.60;;;;;;4974326;28;20033;-72
2021/09/09 10:33:48;;;;;;;5.13;1.90;;;22.90;74.30;;;;;;4989293;28;20157;-72
2021/09/09 10:36:40;;;;;;;4.32;1.95;;;22.90;74.60;;;;;;4990742;28;20050;-73
2021/09/09 10:39:34;;;;;;;3.58;1.80;;;22.80;74.10;;;;;;4991085;28;20113;-73
2021/09/09 10:42:33;;;;;;;3.42;1.95;;;22.80;74.60;;;;;;4987630;28;20031;-73
2021/09/09 10:44:59;;;;;;;4.90;2.15;;;22.70;74.30;;;;;;4988755;28;20048;-72
2021/09/09 10:47:24;;;;;;;2.70;1.73;;;22.70;75.10;;;;;;4989484;28;20027;-73
2021/09/09 10:50:05;;;;;;;3.00;2.03;;;22.70;74.80;;;;;;4991008;28;20032;-73
2021/09/09 10:52:53;;;;;;;3.72;2.03;;;22.70;74.60;;;;;;4991393;28;20058;-72
2021/09/09 10:55:28;;;;;;;2.85;1.73;;;22.80;75.30;;;;;;4991155;28;20111;-70
2021/09/09 10:58:15;;;;;;;3.65;1.90;;;23.00;75.10;;;;;;4989270;28;20557;-72
2021/09/09 11:00:58;;;;;;;2.03;1.42;;;23.40;74.60;;;;;;4974324;28;20034;-73
2021/09/09 11:03:44;;;;;;;2.40;1.60;;;23.70;73.90;;;;;;4989057;28;20031;-72
2021/09/09 11:06:16;;;;;;;2.85;1.60;;;24.40;76.00;;;;;;4990599;28;20462;-73
2021/09/09 11:08:45;;;;;;;2.00;1.23;;;25.50;73.40;;;;;;4971008;28;20558;-72
2021/09/09 11:11:21;;;;;;;2.30;1.10;;;26.40;68.90;;;;;;4990279;28;20026;-73
2021/09/09 11:13:54;;;;;;;2.30;1.15;;;26.20;67.10;;;;;;4988911;28;20476;-72
2021/09/09 11:16:21;;;;;;;3.88;1.30;;;26.30;67.00;;;;;;4992048;28;20131;-70
2021/09/09 11:18:47;;;;;;;2.45;1.27;;;26.20;65.70;;;;;;4972655;28;20030;-72
2021/09/09 11:21:17;;;;;;;2.20;1.30;;;26.40;65.70;;;;;;4990028;28;20126;-70
2021/09/09 11:23:42;;;;;;;2.70;0.95;;;26.10;64.40;;;;;;4990713;28;20062;-70
2021/09/09 11:26:10;;;;;;;2.15;1.20;;;25.90;66.10;;;;;;4989977;28;20473;-69
2021/09/09 11:28:36;;;;;;;1.75;1.00;;;26.70;68.10;;;;;;4997910;28;20050;-71
2021/09/09 11:31:09;;;;;;;2.13;1.30;;;27.50;64.70;;;;;;4990187;28;20462;-70
2021/09/09 11:34:04;;;;;;;3.03;1.15;;;27.80;64.70;;;;;;4990187;28;20038;-71
2021/09/09 11:36:42;;;;;;;2.28;1.30;;;27.90;62.80;;;;;;4990255;28;20081;-71
2021/09/09 11:39:14;;;;;;;1.60;1.10;;;27.60;62.30;;;;;;4990280;28;20058;-71
2021/09/09 11:41:41;;;;;;;1.50;1.30;;;27.10;61.70;;;;;;4988701;28;20015;-73
2021/09/09 11:44:22;;;;;;;2.97;1.65;;;26.50;61.00;;;;;;4973124;28;20821;-72
2021/09/09 11:46:50;;;;;;;2.47;1.52;;;26.10;61.90;;;;;;4988279;28;20070;-71
2021/09/09 11:49:18;;;;;;;2.28;1.38;;;25.80;63.20;;;;;;4989682;28;20263;-71
2021/09/09 11:51:47;;;;;;;3.15;1.70;;;25.60;63.70;;;;;;4990414;28;20027;-71
2021/09/09 11:54:16;;;;;;;3.88;1.67;;;25.50;65.30;;;;;;4986077;28;20077;-73
2021/09/09 11:56:42;;;;;;;4.32;1.83;;;25.40;64.80;;;;;;4985085;28;20023;-71
2021/09/09 11:59:09;;;;;;;2.55;1.73;;;25.30;64.30;;;;;;4989385;28;20030;-73
2021/09/09 12:01:37;;;;;;;3.92;1.90;;;25.10;64.50;;;;;;4974012;28;20046;-73
2021/09/09 12:04:05;;;;;;;4.22;1.80;;;24.90;64.70;;;;;;4990949;28;20077;-72
2021/09/09 12:06:32;;;;;;;3.05;2.10;;;24.80;65.20;;;;;;4989998;28;20034;-72
2021/09/09 12:08:58;;;;;;;2.60;1.90;;;24.70;65.20;;;;;;4988759;28;20130;-72
2021/09/09 12:11:24;;;;;;;1.60;1.45;;;24.70;65.20;;;;;;4988490;28;20054;-72
2021/09/09 12:13:50;;;;;;;5.82;1.80;;;24.70;65.40;;;;;;4991362;28;20073;-72
2021/09/09 12:16:22;;;;;;;3.13;1.73;;;24.90;65.40;;;;;;4990329;28;20081;-72
2021/09/09 12:18:59;;;;;;;3.47;1.80;;;25.10;65.20;;;;;;4990031;28;20026;-72
2021/09/09 12:21:24;;;;;;;3.08;1.90;;;25.30;64.40;;;;;;4989724;28;20019;-72
2021/09/09 12:24:07;;;;;;;4.03;1.88;;;25.40;63.70;;;;;;4993433;28;20030;-72
2021/09/09 12:26:34;;;;;;;2.53;1.60;;;25.30;64.30;;;;;;4993110;28;20553;-72
2021/09/09 12:29:14;;;;;;;3.63;1.95;;;25.30;63.80;;;;;;4975769;28;20403;-72
2021/09/09 12:31:40;;;;;;;3.78;2.03;;;25.30;63.70;;;;;;4990311;28;20098;-72
2021/09/09 12:34:14;;;;;;;3.45;2.20;;;25.00;63.10;;;;;;4989639;28;20115;-72
2021/09/09 12:36:50;;;;;;;2.95;1.98;;;24.90;63.80;;;;;;4992001;28;20045;-72
2021/09/09 12:39:18;;;;;;;3.20;1.75;;;24.80;64.00;;;;;;4993000;28;20096;-71
2021/09/09 12:41:44;;;;;;;3.88;2.00;;;24.70;64.00;;;;;;4993227;28;20402;-73
2021/09/09 12:44:15;;;;;;;4.50;1.90;;;24.70;64.20;;;;;;4992743;28;20041;-72
2021/09/09 12:46:43;;;;;;;3.42;1.85;;;24.70;64.00;;;;;;4984542;28;20136;-72
2021/09/09 12:49:19;;;;;;;3.85;1.88;;;24.70;64.40;;;;;;4978062;28;20030;-72